Time;durP1;ratioP1;P1;durP2;ratioP2;P2;SDS_P1;SDS_P2;PMS_P1;PMS_P2;Temp;Humidity;BMP_temperature;BMP_pressure;BME280_temperature;BME280_humidity;BME280_pressure;Samples;Min_cycle;Max_cycle;Signal;HPM_P1;HPM_P2
2021/09/09 00:00:07;;;;;;;15.60;8.75;;;;;;;10.02;74.78;101972.05;1811350;79;21120;-68
2021/09/09 00:02:37;;;;;;;17.65;8.38;;;;;;;9.96;74.73;101969.08;1811116;79;21192;-67
2021/09/09 00:05:08;;;;;;;9.88;6.15;;;;;;;9.93;74.77;101978.33;1811177;79;21141;-68
2021/09/09 00:07:38;;;;;;;15.50;6.90;;;;;;;9.89;74.79;101976.65;1811230;79;21058;-67
2021/09/09 00:10:08;;;;;;;11.20;5.87;;;;;;;9.85;74.94;101971.02;1811095;79;21098;-68
2021/09/09 00:12:38;;;;;;;13.32;5.92;;;;;;;9.82;75.11;101977.64;1811424;79;21054;-67
2021/09/09 00:15:08;;;;;;;13.35;5.53;;;;;;;9.78;74.94;101970.23;1811460;79;21503;-68
2021/09/09 00:17:39;;;;;;;9.88;5.90;;;;;;;9.75;74.89;101968.10;1811275;79;21094;-67
2021/09/09 00:20:10;;;;;;;16.23;6.80;;;;;;;9.71;74.99;101970.37;1811544;79;21057;-68
2021/09/09 00:22:41;;;;;;;10.45;6.40;;;;;;;9.63;75.35;101963.47;1811355;79;21149;-68
2021/09/09 00:25:11;;;;;;;12.47;6.03;;;;;;;9.60;75.50;101973.16;1811394;79;21105;-68
2021/09/09 00:27:41;;;;;;;14.03;6.35;;;;;;;9.56;75.56;101969.70;1811440;79;21058;-67
2021/09/09 00:30:12;;;;;;;13.30;6.53;;;;;;;9.54;75.41;101968.87;1811420;79;21058;-67
2021/09/09 00:32:43;;;;;;;14.38;7.47;;;;;;;9.52;75.41;101972.42;1811241;79;21184;-68
2021/09/09 00:35:13;;;;;;;15.10;8.20;;;;;;;9.47;75.58;101965.45;1811271;79;21203;-68
2021/09/09 00:37:42;;;;;;;20.85;8.98;;;;;;;9.44;75.85;101968.14;1811491;79;21064;-68
2021/09/09 00:40:12;;;;;;;15.25;7.92;;;;;;;9.43;75.74;101973.42;1811296;79;21138;-68
2021/09/09 00:42:42;;;;;;;13.43;6.70;;;;;;;9.40;75.81;101979.57;1811303;79;21051;-67
2021/09/09 00:45:12;;;;;;;15.53;7.10;;;;;;;9.38;75.84;101977.41;1811271;79;21133;-67
2021/09/09 00:47:42;;;;;;;13.03;6.15;;;;;;;9.34;75.90;101977.49;1811305;79;21046;-67
2021/09/09 00:50:12;;;;;;;11.90;6.92;;;;;;;9.32;75.78;101985.84;1811262;79;21052;-67
2021/09/09 00:52:44;;;;;;;12.65;6.30;;;;;;;9.30;75.72;101983.23;1811282;79;21485;-67
2021/09/09 00:55:14;;;;;;;11.93;6.60;;;;;;;9.26;75.66;101982.86;1811087;79;21168;-67
2021/09/09 00:57:44;;;;;;;12.07;5.95;;;;;;;9.22;75.70;101988.60;1811296;79;21524;-68
2021/09/09 01:00:14;;;;;;;12.37;7.10;;;;;;;9.20;75.99;101985.13;1811177;79;21120;-68
2021/09/09 01:02:43;;;;;;;13.38;6.15;;;;;;;9.16;76.08;101988.66;1811267;79;21101;-68
2021/09/09 01:05:12;;;;;;;13.43;6.40;;;;;;;9.12;76.32;101993.54;1811300;79;21050;-67
2021/09/09 01:07:42;;;;;;;11.00;6.65;;;;;;;9.06;76.64;101991.86;1811285;79;21149;-68
2021/09/09 01:10:11;;;;;;;11.90;8.55;;;;;;;9.06;76.41;101987.06;1811365;79;21074;-68
2021/09/09 01:12:40;;;;;;;18.45;16.00;;;;;;;9.03;76.26;101987.09;1811179;79;21690;-68
2021/09/09 01:15:10;;;;;;;26.33;21.60;;;;;;;9.03;76.19;101989.72;1811392;79;21062;-68
2021/09/09 01:17:39;;;;;;;21.23;17.75;;;;;;;8.96;76.38;101987.59;1811259;79;21054;-68
2021/09/09 01:20:09;;;;;;;25.25;18.23;;;;;;;8.92;76.72;101986.36;1811345;79;21132;-68
2021/09/09 01:22:38;;;;;;;20.17;15.60;;;;;;;8.91;76.92;101992.48;1811287;79;21140;-68
2021/09/09 01:25:08;;;;;;;20.88;15.13;;;;;;;8.84;77.14;101984.69;1811165;79;21132;-68
2021/09/09 01:27:37;;;;;;;23.85;14.38;;;;;;;8.82;77.31;101983.84;1811272;79;21062;-68
2021/09/09 01:30:06;;;;;;;16.77;11.15;;;;;;;8.77;77.47;101979.53;1811298;79;21148;-68
2021/09/09 01:32:35;;;;;;;16.85;10.30;;;;;;;8.74;77.34;101980.88;1811206;79;21086;-68
2021/09/09 01:35:05;;;;;;;13.70;8.55;;;;;;;8.73;77.09;101978.70;1811267;79;21173;-68
2021/09/09 01:37:35;;;;;;;12.23;9.03;;;;;;;8.71;76.93;101981.78;1811171;79;21054;-67
2021/09/09 01:40:05;;;;;;;9.93;7.05;;;;;;;8.68;76.89;101975.25;1811254;79;21642;-67
2021/09/09 01:42:34;;;;;;;15.70;6.58;;;;;;;8.67;77.09;101980.95;1811413;79;21184;-68
2021/09/09 01:45:06;;;;;;;11.35;6.53;;;;;;;8.63;77.22;101978.36;1811280;79;21086;-68
2021/09/09 01:47:35;;;;;;;9.43;6.35;;;;;;;8.59;77.54;101976.21;1811244;79;21137;-68
2021/09/09 01:50:05;;;;;;;16.17;6.17;;;;;;;8.57;77.59;101978.44;1811147;79;21062;-67
2021/09/09 01:52:34;;;;;;;13.70;6.97;;;;;;;8.56;77.76;101983.25;1811358;79;21074;-67
2021/09/09 01:55:03;;;;;;;8.95;5.50;;;;;;;8.49;77.93;101978.52;1811367;79;21053;-67
2021/09/09 01:57:32;;;;;;;10.03;6.28;;;;;;;8.43;78.13;101978.15;1811220;79;21086;-67
2021/09/09 02:00:04;;;;;;;14.15;7.22;;;;;;;8.34;78.22;101977.31;1811263;79;21156;-68
2021/09/09 02:02:33;;;;;;;11.68;8.90;;;;;;;8.26;78.49;101974.77;1809868;79;21192;-69
2021/09/09 02:05:02;;;;;;;20.00;11.12;;;;;;;8.21;78.52;101980.53;1811259;79;21091;-68
2021/09/09 02:07:31;;;;;;;27.80;17.40;;;;;;;8.16;78.57;101975.77;1811329;79;21030;-68
2021/09/09 02:10:00;;;;;;;44.08;29.40;;;;;;;8.16;78.55;101972.69;1811357;79;21086;-68
2021/09/09 02:12:29;;;;;;;91.85;56.48;;;;;;;8.19;78.28;101972.67;1811227;79;21144;-68
2021/09/09 02:14:58;;;;;;;110.72;65.00;;;;;;;8.17;78.38;101969.20;1811166;79;21152;-69
2021/09/09 02:17:27;;;;;;;101.87;59.67;;;;;;;8.16;78.62;101971.83;1811241;79;21148;-68
2021/09/09 02:19:56;;;;;;;58.92;32.23;;;;;;;8.16;78.71;101973.14;1811253;79;21069;-68
2021/09/09 02:22:25;;;;;;;54.80;29.85;;;;;;;8.12;78.96;101981.02;1811355;79;21042;-68
2021/09/09 02:24:54;;;;;;;74.92;44.23;;;;;;;8.07;78.93;101972.32;1811215;79;21078;-67
2021/09/09 02:27:23;;;;;;;80.40;43.25;;;;;;;8.03;79.05;101971.06;1811229;79;21038;-68
2021/09/09 02:29:52;;;;;;;73.78;39.03;;;;;;;8.02;78.78;101968.89;1811145;79;21457;-67
2021/09/09 02:32:21;;;;;;;59.27;33.20;;;;;;;8.01;78.56;101965.83;1811172;79;21130;-67
2021/09/09 02:34:50;;;;;;;47.30;24.72;;;;;;;8.02;78.40;101970.62;1805423;79;21501;-67
2021/09/09 02:37:19;;;;;;;33.83;18.60;;;;;;;8.00;78.30;101968.01;1805299;79;21149;-67
2021/09/09 02:39:48;;;;;;;28.32;14.90;;;;;;;7.98;78.25;101965.84;1805371;79;21055;-67
2021/09/09 02:42:17;;;;;;;21.15;12.58;;;;;;;7.96;78.27;101967.61;1805324;79;21650;-67
2021/09/09 02:44:46;;;;;;;21.60;13.30;;;;;;;7.89;78.49;101969.44;1805196;79;21079;-67
2021/09/09 02:47:15;;;;;;;27.15;18.10;;;;;;;7.90;78.59;101967.67;1805282;79;21090;-67
2021/09/09 02:49:44;;;;;;;28.77;19.82;;;;;;;7.89;78.46;101973.79;1805279;79;21110;-67
2021/09/09 02:52:14;;;;;;;33.50;26.35;;;;;;;7.86;78.22;101971.21;1805252;79;21063;-67
2021/09/09 02:54:43;;;;;;;42.40;34.05;;;;;;;7.83;78.08;101972.09;1805179;79;21038;-67
2021/09/09 02:57:12;;;;;;;40.30;33.23;;;;;;;7.83;78.03;101972.54;1805293;79;21086;-67
2021/09/09 02:59:41;;;;;;;42.38;32.03;;;;;;;7.79;78.01;101966.89;1805253;79;21165;-68
2021/09/09 03:02:10;;;;;;;50.52;37.80;;;;;;;7.79;78.11;101974.77;1805345;79;21090;-67
2021/09/09 03:04:39;;;;;;;37.13;26.65;;;;;;;7.77;78.17;101977.84;1805352;79;21128;-68
2021/09/09 03:07:08;;;;;;;31.70;22.75;;;;;;;7.76;78.08;101975.63;1805124;79;21074;-67
2021/09/09 03:09:38;;;;;;;29.67;20.85;;;;;;;7.77;78.13;101977.84;1805211;79;21128;-67
2021/09/09 03:12:07;;;;;;;34.25;19.67;;;;;;;7.71;78.28;101984.00;1805208;79;21137;-68
2021/09/09 03:14:36;;;;;;;26.37;15.85;;;;;;;7.66;78.50;101980.09;1805240;79;21125;-67
2021/09/09 03:17:05;;;;;;;22.10;12.70;;;;;;;7.64;78.71;101977.92;1805271;79;21204;-67
2021/09/09 03:19:34;;;;;;;23.77;11.55;;;;;;;7.62;79.00;101986.23;1805186;79;21184;-68
2021/09/09 03:22:03;;;;;;;16.52;9.20;;;;;;;7.65;79.09;101982.27;1805263;79;21071;-67
2021/09/09 03:24:33;;;;;;;14.55;8.13;;;;;;;7.73;78.87;101980.92;1805350;79;21058;-68
2021/09/09 03:27:02;;;;;;;15.20;6.70;;;;;;;7.78;78.81;101984.36;1805379;79;21058;-67
2021/09/09 03:29:31;;;;;;;14.28;6.17;;;;;;;7.86;78.63;101978.63;1805237;79;21125;-67
2021/09/09 03:32:00;;;;;;;15.15;9.13;;;;;;;7.95;78.38;101979.42;1805256;79;21164;-68
2021/09/09 03:34:29;;;;;;;17.48;9.00;;;;;;;8.05;78.34;101979.34;1808119;79;21165;-68
2021/09/09 03:36:58;;;;;;;16.02;8.50;;;;;;;8.16;78.28;101977.08;1811183;79;21144;-67
2021/09/09 03:39:27;;;;;;;11.12;6.60;;;;;;;8.30;77.99;101975.20;1811207;79;21582;-67
2021/09/09 03:41:55;;;;;;;13.10;6.25;;;;;;;8.53;77.71;101979.36;1811160;79;21191;-71
2021/09/09 03:44:24;;;;;;;9.83;6.22;;;;;;;8.79;77.34;101975.98;1811197;79;21481;-70
2021/09/09 03:46:53;;;;;;;11.28;4.85;;;;;;;9.11;76.87;101980.00;1811158;79;21136;-71
2021/09/09 03:49:21;;;;;;;7.35;4.65;;;;;;;9.38;76.73;101972.61;1811292;79;21086;-66
2021/09/09 03:51:54;;;;;;;11.50;4.67;;;;;;;9.68;76.70;101974.35;1811268;79;21086;-66
2021/09/09 03:54:21;;;;;;;13.78;4.35;;;;;;;9.96;76.55;101976.97;1811048;79;21140;-68
2021/09/09 03:56:50;;;;;;;7.17;4.70;;;;;;;10.29;76.15;101978.61;1811278;79;21517;-69
2021/09/09 03:59:19;;;;;;;9.70;4.72;;;;;;;10.61;75.61;101984.60;1811142;79;21528;-69
2021/09/09 04:01:47;;;;;;;7.92;4.42;;;;;;;10.92;75.02;101981.37;1811301;79;21070;-66
2021/09/09 04:04:16;;;;;;;11.80;4.97;;;;;;;11.23;74.21;101987.74;1811285;79;21038;-67
2021/09/09 04:06:45;;;;;;;12.85;4.50;;;;;;;11.54;73.64;101986.14;1811282;79;21129;-67
2021/09/09 04:09:14;;;;;;;7.28;4.20;;;;;;;11.87;73.12;101982.28;1811252;79;21125;-67
2021/09/09 04:11:43;;;;;;;16.65;4.35;;;;;;;12.19;72.61;101987.27;1811125;79;21116;-68
2021/09/09 04:14:12;;;;;;;8.65;4.25;;;;;;;12.46;71.89;101983.00;1811479;79;21070;-66
2021/09/09 04:16:41;;;;;;;8.53;3.72;;;;;;;12.73;71.54;101986.67;1811362;79;21086;-67
2021/09/09 04:19:10;;;;;;;12.20;4.58;;;;;;;13.04;70.84;101980.94;1811257;79;21513;-67
2021/09/09 04:21:39;;;;;;;10.03;4.25;;;;;;;13.30;70.23;101977.10;1811276;79;21156;-67
2021/09/09 04:24:08;;;;;;;11.97;4.33;;;;;;;13.60;69.59;101978.84;1811169;79;21128;-67
2021/09/09 04:26:37;;;;;;;9.05;3.58;;;;;;;13.90;69.10;101976.49;1811280;79;21136;-66
2021/09/09 04:29:06;;;;;;;14.28;4.90;;;;;;;14.26;68.85;101977.50;1811428;79;21062;-67
2021/09/09 04:31:35;;;;;;;22.15;6.08;;;;;;;14.70;68.56;101975.98;1811305;79;21102;-67
2021/09/09 04:34:04;;;;;;;23.77;5.62;;;;;;;15.06;68.00;101977.73;1811065;79;21058;-68
2021/09/09 04:36:33;;;;;;;15.68;5.60;;;;;;;15.40;67.36;101975.97;1805354;79;21062;-67
2021/09/09 04:39:02;;;;;;;22.35;6.70;;;;;;;15.63;66.37;101979.48;1805243;79;21509;-68
2021/09/09 04:41:31;;;;;;;32.45;9.10;;;;;;;15.97;65.72;101968.82;1805402;79;21152;-67
2021/09/09 04:43:59;;;;;;;33.95;10.18;;;;;;;16.29;64.77;101973.25;1805463;79;21137;-67
2021/09/09 04:46:32;;;;;;;37.28;10.88;;;;;;;16.49;63.67;101969.69;1805411;79;21145;-67
2021/09/09 04:49:01;;;;;;;45.17;11.53;;;;;;;16.76;63.52;101970.25;1805311;79;21502;-67
2021/09/09 04:51:30;;;;;;;44.27;11.12;;;;;;;16.97;62.91;101973.30;1805201;79;21030;-68
2021/09/09 04:54:00;;;;;;;47.65;12.05;;;;;;;17.08;61.74;101967.92;1805352;79;21086;-67
2021/09/09 04:56:29;;;;;;;32.83;7.25;;;;;;;17.27;61.34;101964.80;1805144;79;21160;-67
2021/09/09 04:58:58;;;;;;;39.73;9.33;;;;;;;17.54;60.92;101963.09;1805273;79;21170;-67
2021/09/09 05:01:27;;;;;;;42.05;10.48;;;;;;;17.67;60.24;101960.66;1805585;79;21066;-67
2021/09/09 05:03:56;;;;;;;32.40;11.33;;;;;;;17.90;59.84;101962.22;1805194;79;21078;-67
2021/09/09 05:06:25;;;;;;;27.58;7.00;;;;;;;18.16;59.03;101961.36;1805390;79;21102;-67
2021/09/09 05:08:54;;;;;;;19.55;5.90;;;;;;;18.33;58.39;101960.00;1805363;79;21062;-67
2021/09/09 05:11:23;;;;;;;20.75;6.58;;;;;;;18.57;58.04;101964.98;1805311;79;21520;-67
2021/09/09 05:13:52;;;;;;;28.42;7.15;;;;;;;18.74;57.14;101969.41;1805312;79;21474;-67
2021/09/09 05:16:21;;;;;;;21.33;5.83;;;;;;;19.03;56.27;101962.52;1805239;79;21034;-68
2021/09/09 05:18:49;;;;;;;22.98;6.12;;;;;;;19.19;55.27;101962.06;1805315;79;21070;-67
2021/09/09 05:21:18;;;;;;;12.63;4.90;;;;;;;19.27;54.62;101961.17;1805334;79;21141;-67
2021/09/09 05:23:47;;;;;;;19.95;5.70;;;;;;;19.45;54.48;101960.58;1805298;79;21030;-67
2021/09/09 05:26:15;;;;;;;22.87;6.83;;;;;;;19.64;53.63;101957.73;1805308;79;21200;-67
2021/09/09 05:28:44;;;;;;;27.02;6.22;;;;;;;19.87;53.28;101952.88;1805296;79;21070;-67
2021/09/09 05:31:13;;;;;;;16.15;5.67;;;;;;;20.27;52.98;101947.82;1805308;79;21070;-67
2021/09/09 05:33:42;;;;;;;13.72;5.10;;;;;;;20.49;52.20;101951.38;1805279;79;21034;-67
2021/09/09 05:36:10;;;;;;;14.10;5.10;;;;;;;20.76;51.85;101959.51;1805237;79;21103;-67
2021/09/09 05:38:39;;;;;;;16.85;5.53;;;;;;;20.78;51.37;101953.58;1805094;79;21078;-68
2021/09/09 05:41:08;;;;;;;14.55;5.33;;;;;;;21.01;51.21;101942.77;1805296;79;21501;-68
2021/09/09 05:43:36;;;;;;;19.62;5.80;;;;;;;21.31;50.30;101951.59;1805146;79;21043;-68
2021/09/09 05:46:05;;;;;;;15.23;5.08;;;;;;;21.52;49.68;101955.55;1805302;79;21195;-67
2021/09/09 05:48:34;;;;;;;15.23;5.30;;;;;;;21.83;49.30;101953.51;1805301;79;21481;-67
2021/09/09 05:51:02;;;;;;;5.20;3.10;;;;;;;22.07;48.96;101958.17;1805310;79;21055;-67
2021/09/09 05:53:31;;;;;;;10.35;3.62;;;;;;;22.24;48.47;101952.98;1805280;79;21137;-68
2021/09/09 05:55:59;;;;;;;8.60;3.65;;;;;;;22.00;47.02;101956.88;1805207;79;21140;-68
2021/09/09 05:58:28;;;;;;;8.95;3.40;;;;;;;21.92;47.34;101953.38;1805306;79;21083;-68
2021/09/09 06:00:57;;;;;;;5.58;3.55;;;;;;;21.78;47.06;101949.81;1805280;79;21148;-68
2021/09/09 06:03:29;;;;;;;7.85;3.37;;;;;;;21.75;46.81;101951.84;1805266;79;21195;-67
2021/09/09 06:06:03;;;;;;;8.73;3.65;;;;;;;21.92;47.20;101956.91;1805277;79;21067;-67
2021/09/09 06:08:26;;;;;;;5.92;3.12;;;;;;;22.14;46.93;101956.79;1805414;79;21058;-68
2021/09/09 06:10:55;;;;;;;6.50;3.15;;;;;;;22.16;46.56;101961.56;1805297;79;21383;-68
2021/09/09 06:13:24;;;;;;;7.37;3.37;;;;;;;22.45;46.60;101956.05;1805282;79;21595;-68
2021/09/09 06:15:53;;;;;;;3.55;2.47;;;;;;;22.60;46.13;101958.98;1805307;79;21074;-68
2021/09/09 06:18:21;;;;;;;9.28;3.75;;;;;;;22.73;46.10;101957.13;1805338;79;21053;-67
2021/09/09 06:20:50;;;;;;;10.18;3.62;;;;;;;22.91;45.58;101959.48;1805322;79;21074;-67
2021/09/09 06:23:19;;;;;;;9.18;3.37;;;;;;;23.03;45.71;101955.89;1805255;79;21070;-67
2021/09/09 06:25:47;;;;;;;5.33;2.65;;;;;;;23.21;45.44;101956.91;1805304;79;21140;-67
2021/09/09 06:28:16;;;;;;;10.75;3.60;;;;;;;23.33;44.94;101960.01;1805295;79;21112;-67
2021/09/09 06:30:45;;;;;;;10.03;3.20;;;;;;;23.36;44.80;101956.26;1805329;79;21086;-67
2021/09/09 06:33:13;;;;;;;8.15;3.15;;;;;;;23.65;44.78;101962.15;1804276;78;21140;-67
2021/09/09 06:35:45;;;;;;;11.70;3.20;;;;;;;23.82;44.40;101955.52;1785275;79;21051;-67
2021/09/09 06:38:12;;;;;;;5.37;3.35;;;;;;;23.92;44.07;101954.33;1791055;79;21027;-67
2021/09/09 06:40:41;;;;;;;17.70;4.30;;;;;;;24.01;43.50;101950.92;1827272;78;21587;-67
2021/09/09 06:43:10;;;;;;;14.25;3.62;;;;;;;24.28;43.61;101949.28;1827429;78;21050;-67
2021/09/09 06:45:38;;;;;;;5.40;2.55;;;;;;;24.58;42.87;101944.67;1827286;78;21070;-67
2021/09/09 06:48:07;;;;;;;11.03;3.22;;;;;;;24.77;41.95;101951.28;1827170;78;21132;-67
2021/09/09 06:50:36;;;;;;;7.67;2.45;;;;;;;24.63;41.54;101946.52;1827241;78;21534;-67
2021/09/09 06:53:05;;;;;;;4.85;2.55;;;;;;;24.43;41.07;101947.22;1827276;78;21058;-67
2021/09/09 06:55:33;;;;;;;4.45;2.80;;;;;;;24.32;41.43;101941.82;1827228;78;21485;-67
2021/09/09 06:58:03;;;;;;;5.20;2.65;;;;;;;24.37;41.37;101939.14;1827311;78;21053;-67
2021/09/09 07:00:31;;;;;;;3.75;1.90;;;;;;;24.44;41.11;101926.91;1827226;78;21485;-68
2021/09/09 07:03:00;;;;;;;3.77;1.72;;;;;;;24.76;40.88;101933.42;1827265;78;21078;-67
2021/09/09 07:05:29;;;;;;;3.15;1.92;;;;;;;24.86;40.14;101938.41;1827272;78;21461;-67
2021/09/09 07:07:58;;;;;;;5.60;2.33;;;;;;;24.90;40.08;101925.09;1827291;78;21132;-67
2021/09/09 07:10:26;;;;;;;4.83;1.65;;;;;;;24.95;39.88;101924.70;1827296;78;21496;-67
2021/09/09 07:12:55;;;;;;;4.42;1.80;;;;;;;24.93;39.66;101924.81;1827306;78;21054;-67
2021/09/09 07:15:24;;;;;;;6.20;1.70;;;;;;;24.94;39.89;101923.85;1827195;78;21595;-67
2021/09/09 07:17:52;;;;;;;9.90;2.10;;;;;;;25.18;39.84;101917.44;1827307;78;21050;-67
2021/09/09 07:20:21;;;;;;;5.12;2.55;;;;;;;25.52;39.88;101920.03;1827253;78;21062;-67
2021/09/09 07:22:50;;;;;;;5.87;2.17;;;;;;;25.87;38.87;101920.23;1827392;78;21037;-67
2021/09/09 07:25:19;;;;;;;3.33;1.42;;;;;;;25.76;38.05;101916.59;1827404;78;21070;-67
2021/09/09 07:27:47;;;;;;;3.10;1.90;;;;;;;25.73;38.23;101910.14;1827295;78;21058;-67
2021/09/09 07:30:16;;;;;;;3.77;1.82;;;;;;;25.70;37.84;101906.34;1827395;78;21136;-67
2021/09/09 07:32:44;;;;;;;7.55;2.45;;;;;;;25.61;38.24;101893.14;1827376;78;21062;-67
2021/09/09 07:35:13;;;;;;;3.58;1.82;;;;;;;25.60;37.97;101898.19;1827351;78;21086;-67
2021/09/09 07:37:42;;;;;;;3.17;1.65;;;;;;;25.74;37.87;101896.15;1812453;78;21090;-67
2021/09/09 07:40:11;;;;;;;3.72;2.00;;;;;;;25.76;38.02;101885.58;1799377;79;21034;-68
2021/09/09 07:42:39;;;;;;;3.65;1.40;;;;;;;25.97;37.61;101882.92;1799430;80;21022;-67
2021/09/09 07:45:09;;;;;;;5.28;1.57;;;;;;;26.19;37.85;101880.56;1799451;79;21058;-67
2021/09/09 07:47:38;;;;;;;4.78;1.95;;;;;;;26.38;36.94;101884.34;1799491;80;21054;-67
2021/09/09 07:50:08;;;;;;;5.87;2.80;;;;;;;26.39;36.91;101871.17;1799476;79;21113;-67
2021/09/09 07:52:40;;;;;;;7.58;1.95;;;;;;;26.35;36.61;101877.34;1799438;80;21077;-67
2021/09/09 07:55:11;;;;;;;2.60;1.35;;;;;;;26.44;36.84;101867.58;1799473;80;21454;-66
2021/09/09 07:57:41;;;;;;;3.42;1.67;;;;;;;26.81;36.53;101871.06;1799490;80;21034;-67
2021/09/09 08:00:11;;;;;;;7.55;1.85;;;;;;;26.64;35.99;101873.09;1799512;79;21054;-67
2021/09/09 08:02:39;;;;;;;5.03;1.70;;;;;;;26.61;36.43;101861.20;1799443;79;21058;-66
2021/09/09 08:05:09;;;;;;;4.10;1.47;;;;;;;26.88;36.29;101866.81;1799400;80;21038;-68
2021/09/09 08:07:42;;;;;;;9.15;2.17;;;;;;;26.84;35.53;101861.84;1799417;80;21165;-67
2021/09/09 08:10:17;;;;;;;6.90;2.25;;;;;;;26.85;35.65;101858.97;1798451;79;21058;-67
2021/09/09 08:12:44;;;;;;;3.15;1.50;;;;;;;26.99;35.86;101867.70;1799257;79;21105;-67
2021/09/09 08:15:13;;;;;;;7.72;1.62;;;;;;;27.27;35.82;101856.06;1799400;79;21057;-67
2021/09/09 08:17:43;;;;;;;4.53;1.42;;;;;;;27.44;35.29;101850.94;1799289;80;21614;-68
2021/09/09 08:20:12;;;;;;;4.90;1.75;;;;;;;27.31;34.97;101849.88;1799373;80;21030;-66
2021/09/09 08:22:42;;;;;;;3.00;1.47;;;;;;;27.40;35.27;101841.41;1799418;80;21058;-67
2021/09/09 08:25:12;;;;;;;3.70;1.92;;;;;;;27.49;34.82;101850.02;1799424;80;21533;-67
2021/09/09 08:27:40;;;;;;;5.58;1.45;;;;;;;27.47;34.99;101847.95;1799411;80;21054;-67
2021/09/09 08:30:09;;;;;;;3.77;1.40;;;;;;;27.63;35.11;101836.05;1799399;80;21442;-67
2021/09/09 08:32:38;;;;;;;3.58;1.50;;;;;;;27.80;34.82;101831.73;1799357;80;21050;-67
2021/09/09 08:35:08;;;;;;;3.80;1.62;;;;;;;27.86;34.20;101837.05;1799494;79;21485;-67
2021/09/09 08:37:37;;;;;;;2.65;1.02;;;;;;;28.00;34.14;101833.91;1802702;79;21085;-67
2021/09/09 08:40:09;;;;;;;9.15;1.52;;;;;;;28.26;34.14;101829.18;1818667;79;21537;-67
2021/09/09 08:42:43;;;;;;;1.65;1.25;;;;;;;28.47;34.19;101828.41;1818612;79;21176;-68
2021/09/09 08:45:16;;;;;;;2.75;1.05;;;;;;;28.66;33.06;101815.78;1818667;79;21493;-67
2021/09/09 08:47:48;;;;;;;4.25;1.12;;;;;;;28.78;33.48;101810.50;1818899;79;21054;-67
2021/09/09 08:50:17;;;;;;;2.17;0.93;;;;;;;29.16;33.29;101801.75;1818649;79;21074;-67
2021/09/09 08:52:48;;;;;;;4.05;1.00;;;;;;;29.25;32.44;101806.23;1818742;79;21141;-67
2021/09/09 08:55:16;;;;;;;4.72;1.05;;;;;;;28.78;32.18;101803.72;1818586;79;21054;-68
2021/09/09 08:57:45;;;;;;;5.95;1.00;;;;;;;28.27;32.30;101796.51;1818695;79;21054;-67
2021/09/09 09:00:15;;;;;;;5.05;1.20;;;;;;;28.21;32.81;101794.41;1818779;79;21137;-67
2021/09/09 09:02:51;;;;;;;3.58;0.93;;;;;;;28.53;33.16;101784.98;1818759;79;21054;-67
2021/09/09 09:05:20;;;;;;;3.35;0.95;;;;;;;28.88;32.73;101780.60;1818706;79;21062;-67
2021/09/09 09:07:57;;;;;;;2.45;1.22;;;;;;;28.86;31.91;101783.46;1818541;79;21062;-68
2021/09/09 09:10:25;;;;;;;3.33;1.05;;;;;;;28.54;31.55;101772.31;1818732;79;21136;-68
2021/09/09 09:12:55;;;;;;;2.15;0.90;;;;;;;28.42;32.02;101782.47;1818676;79;21078;-67
2021/09/09 09:15:32;;;;;;;1.20;0.70;;;;;;;28.22;32.33;101781.23;1818719;79;21066;-67
2021/09/09 09:18:10;;;;;;;2.50;1.07;;;;;;;28.30;32.47;101774.55;1818702;79;21059;-68
2021/09/09 09:20:54;;;;;;;2.30;0.60;;;;;;;28.32;31.75;101773.56;1818735;79;21476;-67
2021/09/09 09:23:26;;;;;;;3.83;0.90;;;;;;;28.15;31.84;101768.45;1818741;79;21034;-67
2021/09/09 09:26:03;;;;;;;1.12;0.60;;;;;;;28.29;32.51;101764.73;1817492;79;21128;-66
2021/09/09 09:28:40;;;;;;;1.00;0.78;;;;;;;28.47;31.05;101775.58;1818572;79;21058;-68
2021/09/09 09:31:15;;;;;;;2.08;0.75;;;;;;;28.10;31.36;101767.03;1818690;79;21086;-67
2021/09/09 09:33:58;;;;;;;2.15;0.75;;;;;;;27.95;31.79;101761.77;1818708;79;21081;-67
2021/09/09 09:36:40;;;;;;;2.87;0.80;;;;;;;27.93;32.12;101762.42;1817313;79;21066;-67
2021/09/09 09:39:12;;;;;;;5.42;0.90;;;;;;;27.84;31.81;101760.58;1818538;79;21556;-67
2021/09/09 09:41:43;;;;;;;4.65;1.00;;;;;;;27.89;32.22;101757.80;1818677;79;21066;-68
2021/09/09 09:44:14;;;;;;;2.20;0.60;;;;;;;28.26;32.22;101752.84;1816848;79;21082;-67
2021/09/09 09:46:43;;;;;;;5.95;0.78;;;;;;;28.49;31.97;101749.70;1818710;79;21066;-67
2021/09/09 09:49:29;;;;;;;3.47;0.78;;;;;;;28.44;31.36;101743.41;1818694;79;21453;-67
2021/09/09 09:52:00;;;;;;;5.30;1.02;;;;;;;28.33;31.41;101742.27;1818695;79;21563;-67
2021/09/09 09:54:31;;;;;;;4.95;1.35;;;;;;;28.38;31.52;101735.87;1818702;79;21481;-67
2021/09/09 09:57:02;;;;;;;2.35;0.72;;;;;;;28.44;31.29;101735.28;1818682;79;21070;-67
2021/09/09 09:59:30;;;;;;;4.65;0.95;;;;;;;28.27;31.13;101737.44;1818680;79;21140;-67
2021/09/09 10:02:00;;;;;;;2.92;0.75;;;;;;;28.17;31.53;101732.61;1818559;79;21453;-67
2021/09/09 10:04:30;;;;;;;4.97;0.80;;;;;;;28.20;31.79;101727.73;1818698;79;21058;-67
2021/09/09 10:06:59;;;;;;;1.95;0.55;;;;;;;28.36;31.94;101718.08;1818664;79;21059;-67
2021/09/09 10:09:29;;;;;;;2.05;0.60;;;;;;;28.52;31.75;101718.77;1818658;79;21845;-67
2021/09/09 10:11:57;;;;;;;0.88;0.50;;;;;;;28.40;31.04;101710.83;1818673;79;21128;-67
2021/09/09 10:14:28;;;;;;;2.92;0.70;;;;;;;28.16;31.39;101711.94;1818608;79;21050;-68
2021/09/09 10:16:59;;;;;;;2.00;0.60;;;;;;;27.89;31.20;101702.80;1818636;79;21152;-67
2021/09/09 10:19:33;;;;;;;3.27;0.80;;;;;;;27.71;31.47;101711.70;1818697;79;21148;-67
2021/09/09 10:22:11;;;;;;;1.50;0.70;;;;;;;27.49;31.72;101694.48;1818703;79;21178;-67
2021/09/09 10:24:42;;;;;;;2.20;0.90;;;;;;;27.34;32.07;101693.60;1816699;79;21148;-67
2021/09/09 10:27:27;;;;;;;1.85;0.80;;;;;;;27.26;32.10;101692.14;1818663;79;21141;-67
2021/09/09 10:30:01;;;;;;;3.60;0.62;;;;;;;27.14;32.53;101694.62;1818664;79;21057;-67
2021/09/09 10:32:43;;;;;;;5.70;1.10;;;;;;;27.07;32.46;101688.93;1818722;79;21124;-67
2021/09/09 10:35:26;;;;;;;2.20;0.70;;;;;;;27.07;33.04;101689.44;1818314;78;21102;-67
2021/09/09 10:37:56;;;;;;;2.02;0.60;;;;;;;27.21;32.47;101685.44;1818462;79;21469;-67
2021/09/09 10:40:37;;;;;;;2.42;0.88;;;;;;;27.26;32.49;101685.86;1804657;79;21098;-67
2021/09/09 10:43:08;;;;;;;7.08;1.07;;;;;;;27.19;32.19;101678.83;1804725;79;21501;-67
2021/09/09 10:45:39;;;;;;;1.62;1.00;;;;;;;27.14;32.65;101674.34;1804651;79;21457;-67
2021/09/09 10:48:17;;;;;;;11.83;0.90;;;;;;;27.24;32.29;101671.61;1804664;79;21156;-67
2021/09/09 10:51:04;;;;;;;6.95;1.00;;;;;;;27.04;32.61;101674.85;1804895;79;21156;-67
2021/09/09 10:53:39;;;;;;;4.95;0.93;;;;;;;27.01;32.87;101672.46;1804690;79;21034;-67
2021/09/09 10:56:11;;;;;;;4.17;0.80;;;;;;;26.97;32.86;101667.84;1804528;79;21056;-67
2021/09/09 10:58:43;;;;;;;0.85;0.50;;;;;;;26.89;32.44;101669.92;1804371;79;21472;-66
2021/09/09 11:01:13;;;;;;;2.30;0.70;;;;;;;26.65;32.65;101664.09;1804832;79;21033;-66
2021/09/09 11:03:44;;;;;;;3.05;0.50;;;;;;;26.39;33.06;101652.00;1804767;79;21058;-65
2021/09/09 11:06:18;;;;;;;1.62;0.55;;;;;;;26.30;33.42;101657.36;1804817;79;21082;-65
2021/09/09 11:08:53;;;;;;;1.67;0.75;;;;;;;26.20;34.02;101643.36;1804597;79;21058;-66
2021/09/09 11:11:23;;;;;;;6.35;0.70;;;;;;;26.20;34.03;101652.81;1804646;79;21139;-66
2021/09/09 11:13:59;;;;;;;4.65;0.70;;;;;;;26.09;34.03;101654.28;1804709;78;21034;-66
2021/09/09 11:16:36;;;;;;;2.90;0.70;;;;;;;26.07;34.25;101645.48;1804719;79;21365;-66
2021/09/09 11:19:08;;;;;;;2.62;1.10;;;;;;;26.08;34.03;101636.41;1804572;79;21081;-66
2021/09/09 11:21:40;;;;;;;12.00;1.00;;;;;;;25.97;34.06;101634.67;1804661;79;21140;-66
2021/09/09 11:24:14;;;;;;;3.57;0.80;;;;;;;25.67;34.44;101639.59;1804929;79;21136;-66
2021/09/09 11:26:46;;;;;;;3.15;0.80;;;;;;;25.41;34.87;101641.39;1804671;79;21280;-65
2021/09/09 11:29:16;;;;;;;2.90;0.80;;;;;;;25.25;35.04;101635.67;1804678;79;21465;-65
2021/09/09 11:31:54;;;;;;;1.10;0.60;;;;;;;25.21;35.46;101634.17;1804694;79;21087;-66
2021/09/09 11:34:31;;;;;;;1.85;0.70;;;;;;;25.14;35.79;101629.83;1804094;79;21090;-66